Time;durP1;ratioP1;P1;durP2;ratioP2;P2;SDS_P1;SDS_P2;PMS_P1;PMS_P2;Temp;Humidity;BMP_temperature;BMP_pressure;BME280_temperature;BME280_humidity;BME280_pressure;Samples;Min_cycle;Max_cycle;Signal;HPM_P1;HPM_P2
2021/08/06 00:00:41;;;;;;;6.45;4.43;;;;;;;17.03;95.19;99025.50;5055971;28;20037;-72
2021/08/06 00:03:09;;;;;;;5.75;4.47;;;;;;;16.98;95.37;99025.97;5055475;28;20075;-74
2021/08/06 00:05:39;;;;;;;7.03;4.80;;;;;;;16.97;95.41;99031.53;5055953;28;20095;-74
2021/08/06 00:08:08;;;;;;;5.32;4.13;;;;;;;16.99;95.32;99030.41;5055406;28;20041;-74
2021/08/06 00:10:36;;;;;;;7.43;4.68;;;;;;;17.02;95.45;99026.53;5055713;28;20037;-74
2021/08/06 00:13:04;;;;;;;6.05;4.10;;;;;;;17.01;95.04;99023.00;5055258;28;20480;-74
2021/08/06 00:15:33;;;;;;;5.35;3.85;;;;;;;17.04;94.79;99028.03;5055493;28;20446;-74
2021/08/06 00:18:01;;;;;;;5.30;4.00;;;;;;;17.04;94.48;99028.03;5055362;28;20068;-74
2021/08/06 00:20:30;;;;;;;5.05;3.30;;;;;;;17.04;93.25;99027.19;5055471;28;20051;-74
2021/08/06 00:23:02;;;;;;;5.00;3.55;;;;;;;17.01;93.74;99031.06;5055068;28;20095;-74
2021/08/06 00:25:31;;;;;;;6.43;4.85;;;;;;;16.99;94.21;99027.69;5055672;28;20136;-74
2021/08/06 00:27:59;;;;;;;5.25;4.35;;;;;;;17.05;94.06;99028.88;5055040;28;20487;-74
2021/08/06 00:30:28;;;;;;;5.43;4.05;;;;;;;17.01;93.96;99025.69;5054960;28;20053;-74
2021/08/06 00:32:57;;;;;;;6.35;4.72;;;;;;;17.00;92.92;99020.47;5054817;28;20513;-74
2021/08/06 00:35:25;;;;;;;6.20;4.68;;;;;;;17.00;93.42;99021.31;5053982;28;20146;-75
2021/08/06 00:37:54;;;;;;;5.68;4.05;;;;;;;17.00;93.31;99024.00;5055032;28;20466;-77
2021/08/06 00:40:24;;;;;;;6.60;4.47;;;;;;;16.95;93.58;99026.31;5055172;28;20134;-74
2021/08/06 00:42:53;;;;;;;6.63;4.95;;;;;;;16.96;93.57;99025.31;5055350;28;20059;-76
2021/08/06 00:45:21;;;;;;;6.20;4.57;;;;;;;17.02;92.63;99042.69;5055532;28;20464;-76
2021/08/06 00:47:50;;;;;;;7.25;4.85;;;;;;;17.02;93.24;99040.00;5054954;28;20037;-76
2021/08/06 00:50:18;;;;;;;6.20;4.88;;;;;;;17.01;92.91;99038.31;5054533;28;20055;-76
2021/08/06 00:52:46;;;;;;;5.82;4.47;;;;;;;17.01;92.43;99039.16;5055277;28;20095;-75
2021/08/06 00:55:14;;;;;;;7.93;4.13;;;;;;;16.97;92.13;99036.94;5054696;28;20099;-75
2021/08/06 00:57:44;;;;;;;7.28;4.65;;;;;;;16.88;92.67;99036.03;5055041;28;20037;-75
2021/08/06 01:00:15;;;;;;;6.25;4.40;;;;;;;16.84;92.73;99037.38;5054669;28;20041;-76
2021/08/06 01:02:51;;;;;;;6.95;4.13;;;;;;;16.82;92.33;99034.03;5054585;28;20041;-75
2021/08/06 01:05:26;;;;;;;6.63;4.13;;;;;;;16.82;92.50;99029.47;5054619;28;20041;-75
2021/08/06 01:08:03;;;;;;;6.45;4.13;;;;;;;16.75;92.79;99033.81;5054732;28;20400;-76
2021/08/06 01:10:41;;;;;;;6.72;4.28;;;;;;;16.74;93.24;99024.06;5053338;28;20055;-76
2021/08/06 01:13:14;;;;;;;7.00;4.03;;;;;;;16.75;92.79;99032.97;5054276;28;20484;-77
2021/08/06 01:15:48;;;;;;;5.32;3.67;;;;;;;16.69;93.06;99033.59;5054947;28;20056;-77
2021/08/06 01:18:22;;;;;;;6.43;3.90;;;;;;;16.63;93.37;99027.00;5054148;28;20484;-77
2021/08/06 01:20:54;;;;;;;5.70;3.72;;;;;;;16.58;93.49;99027.47;5054543;28;20127;-77
2021/08/06 01:23:26;;;;;;;5.25;4.10;;;;;;;16.53;93.88;99032.50;5054436;28;20128;-78
2021/08/06 01:25:58;;;;;;;5.40;3.92;;;;;;;16.50;94.02;99029.25;5054286;28;20435;-77
2021/08/06 01:28:28;;;;;;;4.80;3.40;;;;;;;16.47;93.55;99027.75;5054527;28;20068;-74
2021/08/06 01:30:57;;;;;;;5.30;3.83;;;;;;;16.46;93.76;99015.28;5053827;28;20045;-77
2021/08/06 01:33:26;;;;;;;8.98;4.60;;;;;;;16.46;93.86;99025.22;5054409;28;20075;-75
2021/08/06 01:35:54;;;;;;;6.15;4.32;;;;;;;16.40;93.94;99037.44;5054272;28;20476;-76
2021/08/06 01:38:22;;;;;;;5.72;4.20;;;;;;;16.41;93.63;99020.31;5054230;28;20045;-76
2021/08/06 01:41:09;;;;;;;5.60;3.95;;;;;;;16.36;94.32;99028.00;5054161;28;20407;-75
2021/08/06 01:43:42;;;;;;;6.18;4.00;;;;;;;16.35;94.41;99026.31;5053970;28;20041;-75
2021/08/06 01:46:17;;;;;;;6.45;4.45;;;;;;;16.32;94.63;99029.34;5053665;28;20052;-75
2021/08/06 01:48:49;;;;;;;6.47;3.67;;;;;;;16.28;94.73;99036.03;5053979;28;20045;-75
2021/08/06 01:51:22;;;;;;;5.97;4.57;;;;;;;16.24;95.06;99031.97;5053383;28;20051;-75
2021/08/06 01:53:53;;;;;;;6.63;5.00;;;;;;;16.22;94.95;99031.28;5053743;28;20045;-75
2021/08/06 01:56:24;;;;;;;6.78;4.53;;;;;;;16.21;95.21;99037.66;5053481;28;20077;-75
2021/08/06 01:58:57;;;;;;;8.25;4.82;;;;;;;16.19;95.17;99036.97;5053551;28;20037;-75
2021/08/06 02:01:25;;;;;;;6.27;4.07;;;;;;;16.18;95.28;99024.53;5053498;28;20488;-75
2021/08/06 02:03:54;;;;;;;6.60;4.28;;;;;;;16.16;95.13;99032.75;5053520;28;20045;-76
2021/08/06 02:06:22;;;;;;;6.20;4.25;;;;;;;16.13;95.41;99024.16;5053060;28;20076;-76
2021/08/06 02:08:51;;;;;;;5.97;4.43;;;;;;;16.10;95.60;99027.16;5053403;28;20047;-75
2021/08/06 02:11:21;;;;;;;6.88;4.38;;;;;;;16.10;95.17;99027.16;5052858;28;20045;-75
2021/08/06 02:13:52;;;;;;;6.50;5.00;;;;;;;16.09;95.54;99033.53;5053382;28;20045;-75
2021/08/06 02:16:24;;;;;;;6.22;4.80;;;;;;;16.03;95.75;99029.66;5052791;28;20487;-76
2021/08/06 02:18:56;;;;;;;5.75;3.97;;;;;;;16.05;95.44;99040.25;5053465;28;20095;-77
2021/08/06 02:21:29;;;;;;;6.10;4.60;;;;;;;16.00;95.82;99044.22;5053026;28;20060;-77
2021/08/06 02:24:02;;;;;;;5.30;4.10;;;;;;;15.97;96.06;99049.09;5053211;28;20041;-76
2021/08/06 02:26:33;;;;;;;5.37;4.13;;;;;;;15.95;95.91;99057.31;5053382;28;20136;-74
2021/08/06 02:29:04;;;;;;;6.85;4.65;;;;;;;15.94;95.79;99055.63;5053271;28;20048;-76
2021/08/06 02:31:33;;;;;;;8.35;3.92;;;;;;;15.95;96.23;99061.84;5052815;28;20060;-76
2021/08/06 02:34:03;;;;;;;5.43;3.97;;;;;;;15.92;96.29;99062.13;5051679;28;20049;-76
2021/08/06 02:36:33;;;;;;;5.75;4.13;;;;;;;15.90;96.44;99067.69;5052929;28;20107;-76
2021/08/06 02:39:01;;;;;;;6.63;4.80;;;;;;;15.90;96.52;99064.16;5052623;28;20090;-76
2021/08/06 02:41:30;;;;;;;6.35;4.43;;;;;;;15.86;96.82;99060.94;5052895;28;20048;-75
2021/08/06 02:43:58;;;;;;;6.80;5.00;;;;;;;15.83;96.77;99063.94;5052918;28;20045;-75
2021/08/06 02:46:28;;;;;;;8.20;4.85;;;;;;;15.83;96.94;99063.09;5053248;28;20045;-75
2021/08/06 02:48:56;;;;;;;6.53;4.25;;;;;;;15.82;96.72;99072.13;5052743;28;20068;-75
2021/08/06 02:51:25;;;;;;;5.60;4.22;;;;;;;15.81;97.08;99067.75;5052363;28;20096;-75
2021/08/06 02:53:53;;;;;;;7.15;5.32;;;;;;;15.80;96.59;99066.91;5051751;28;20053;-75
2021/08/06 02:56:21;;;;;;;8.98;5.10;;;;;;;15.75;96.96;99077.31;5052478;28;20055;-81
2021/08/06 02:58:49;;;;;;;7.05;4.50;;;;;;;15.74;97.21;99071.09;5052758;28;20049;-82
2021/08/06 03:01:18;;;;;;;6.90;4.82;;;;;;;15.71;97.16;99060.63;5052558;28;20395;-81
2021/08/06 03:03:50;;;;;;;6.28;4.78;;;;;;;15.75;97.00;99061.16;5053103;28;20045;-83
2021/08/06 03:06:18;;;;;;;6.75;4.95;;;;;;;15.70;97.16;99052.72;5052704;28;20049;-77
2021/08/06 03:08:46;;;;;;;5.47;4.00;;;;;;;15.70;96.80;99063.47;5052696;28;20049;-77
2021/08/06 03:11:17;;;;;;;7.15;4.38;;;;;;;15.70;96.22;99055.41;5052322;28;20096;-77
2021/08/06 03:13:45;;;;;;;5.82;4.32;;;;;;;15.62;96.83;99044.56;5052606;28;20072;-76
2021/08/06 03:16:13;;;;;;;6.18;4.88;;;;;;;15.67;96.89;99058.41;5052001;28;20053;-77
2021/08/06 03:18:42;;;;;;;7.57;4.40;;;;;;;15.66;96.62;99062.09;5052683;28;20041;-76
2021/08/06 03:21:17;;;;;;;7.25;4.70;;;;;;;15.64;97.01;99074.84;5051508;28;20449;-76
2021/08/06 03:23:45;;;;;;;6.20;4.40;;;;;;;15.62;97.02;99087.56;5052697;28;20523;-76
2021/08/06 03:26:13;;;;;;;8.27;4.50;;;;;;;15.57;97.32;99079.94;5052264;28;20442;-75
2021/08/06 03:28:42;;;;;;;6.15;4.20;;;;;;;15.56;97.66;99088.16;5055455;28;20395;-75
2021/08/06 03:31:10;;;;;;;7.70;4.93;;;;;;;15.53;97.86;99085.75;5055980;28;20045;-76
2021/08/06 03:33:38;;;;;;;8.73;4.88;;;;;;;15.55;97.92;99083.78;5056727;28;20144;-75
2021/08/06 03:36:07;;;;;;;8.02;4.40;;;;;;;15.53;97.81;99091.97;5055854;28;20072;-75
2021/08/06 03:38:36;;;;;;;6.78;4.75;;;;;;;15.57;97.73;99101.44;5056306;28;20041;-75
2021/08/06 03:41:05;;;;;;;6.47;5.07;;;;;;;15.56;97.99;99104.28;5056232;28;20083;-76
2021/08/06 03:43:33;;;;;;;9.60;4.95;;;;;;;15.62;97.43;99111.75;5056558;28;20475;-74
2021/08/06 03:46:01;;;;;;;6.55;4.90;;;;;;;15.64;97.15;99117.84;5056614;28;20075;-74
2021/08/06 03:48:30;;;;;;;8.18;4.90;;;;;;;15.66;96.79;99118.53;5055782;28;20049;-74
2021/08/06 03:50:58;;;;;;;7.60;5.07;;;;;;;15.76;96.87;99113.94;5056077;28;20103;-74
2021/08/06 03:53:26;;;;;;;8.32;4.80;;;;;;;15.78;96.03;99122.69;5055785;28;20045;-77
2021/08/06 03:55:56;;;;;;;6.35;4.35;;;;;;;15.77;96.18;99118.31;5056065;28;20072;-75
2021/08/06 03:58:24;;;;;;;8.07;4.40;;;;;;;15.81;95.95;99125.06;5055716;28;20475;-75
2021/08/06 04:00:53;;;;;;;7.53;5.00;;;;;;;15.94;95.32;99127.41;5056021;28;20424;-78
2021/08/06 04:03:21;;;;;;;5.90;4.28;;;;;;;16.01;94.85;99123.91;5054512;28;20053;-78
2021/08/06 04:05:49;;;;;;;5.93;4.15;;;;;;;16.25;93.39;99122.44;5055756;28;20049;-79
2021/08/06 04:08:17;;;;;;;5.65;4.18;;;;;;;16.42;92.54;99129.66;5055340;28;20103;-75
2021/08/06 04:10:45;;;;;;;5.75;4.45;;;;;;;16.80;90.51;99130.28;5055961;28;20071;-76
2021/08/06 04:13:15;;;;;;;7.28;4.05;;;;;;;17.57;86.87;99136.53;5055444;28;20048;-77
2021/08/06 04:15:43;;;;;;;5.05;3.78;;;;;;;18.19;82.44;99140.56;5055593;28;20044;-77
2021/08/06 04:18:11;;;;;;;5.35;3.80;;;;;;;18.12;81.91;99126.03;5055208;28;20045;-76
2021/08/06 04:20:40;;;;;;;6.45;3.90;;;;;;;18.36;81.47;99122.50;5055365;28;20465;-76
2021/08/06 04:23:08;;;;;;;7.30;4.15;;;;;;;18.66;79.91;99129.09;5055360;28;20056;-77
2021/08/06 04:25:36;;;;;;;9.43;4.03;;;;;;;18.83;79.10;99125.34;5055755;28;20132;-75
2021/08/06 04:28:05;;;;;;;5.38;3.67;;;;;;;19.24;77.07;99122.53;5055254;28;20040;-75
2021/08/06 04:30:35;;;;;;;5.00;3.45;;;;;;;19.21;76.86;99122.88;5055352;28;20048;-76
2021/08/06 04:33:03;;;;;;;5.75;3.80;;;;;;;18.80;78.06;99131.06;5055385;28;20049;-77
2021/08/06 04:35:32;;;;;;;5.72;3.70;;;;;;;18.92;77.66;99128.03;5055045;28;20053;-77
2021/08/06 04:38:00;;;;;;;6.25;3.63;;;;;;;18.90;78.06;99138.16;5055042;28;20080;-77
2021/08/06 04:40:29;;;;;;;5.25;3.90;;;;;;;18.82;78.11;99144.44;5055079;28;20056;-78
2021/08/06 04:42:57;;;;;;;6.43;3.88;;;;;;;18.86;78.11;99152.00;5055279;28;20041;-74
2021/08/06 04:45:26;;;;;;;5.88;3.50;;;;;;;18.26;80.24;99146.13;5054859;28;20041;-75
2021/08/06 04:48:00;;;;;;;6.55;3.80;;;;;;;17.86;82.64;99153.16;5055115;28;20045;-73
2021/08/06 04:50:28;;;;;;;5.95;3.80;;;;;;;18.29;81.71;99152.03;5054375;28;20045;-71
2021/08/06 04:52:58;;;;;;;6.97;3.42;;;;;;;19.03;78.72;99146.59;5054898;28;20045;-72
2021/08/06 04:55:27;;;;;;;5.22;3.47;;;;;;;18.72;78.77;99144.63;5054593;28;20048;-71
2021/08/06 04:57:55;;;;;;;6.72;3.63;;;;;;;19.41;75.99;99153.88;5055119;28;20040;-72
2021/08/06 05:00:23;;;;;;;5.03;3.63;;;;;;;19.89;73.29;99138.47;5054188;28;20162;-73
2021/08/06 05:02:52;;;;;;;5.25;3.30;;;;;;;19.40;75.42;99146.81;5054774;28;20076;-73
2021/08/06 05:05:21;;;;;;;4.20;3.17;;;;;;;19.20;75.91;99147.34;5054348;28;20037;-73
2021/08/06 05:07:51;;;;;;;5.50;3.58;;;;;;;18.62;78.86;99152.00;5054690;28;20060;-71
2021/08/06 05:10:21;;;;;;;4.20;3.00;;;;;;;18.07;80.43;99158.09;5054196;28;20480;-72
2021/08/06 05:12:49;;;;;;;4.72;3.47;;;;;;;18.38;79.82;99152.03;5054238;28;20049;-71
2021/08/06 05:15:18;;;;;;;6.28;4.05;;;;;;;18.86;78.36;99152.00;5053852;28;20048;-75
2021/08/06 05:17:47;;;;;;;7.32;3.13;;;;;;;18.78;77.68;99164.69;5054459;28;20056;-74
2021/08/06 05:20:17;;;;;;;5.82;3.70;;;;;;;18.47;79.20;99151.03;5053539;28;20496;-74
2021/08/06 05:22:47;;;;;;;6.70;2.78;;;;;;;17.82;81.30;99167.13;5054720;28;20143;-74
2021/08/06 05:25:15;;;;;;;5.53;3.67;;;;;;;17.70;82.42;99172.84;5053929;28;20045;-74
2021/08/06 05:27:44;;;;;;;4.82;2.80;;;;;;;17.46;83.28;99162.75;5054402;28;20041;-74
2021/08/06 05:30:14;;;;;;;4.88;3.55;;;;;;;17.77;82.66;99178.44;5054157;28;20045;-75
2021/08/06 05:32:43;;;;;;;7.72;3.25;;;;;;;17.53;83.00;99165.66;5053863;28;20056;-74
2021/08/06 05:35:11;;;;;;;7.70;3.80;;;;;;;17.37;84.56;99189.84;5054118;28;20056;-74
2021/08/06 05:37:39;;;;;;;5.05;3.78;;;;;;;17.62;83.69;99178.16;5054005;28;20403;-74
2021/08/06 05:40:10;;;;;;;4.28;3.15;;;;;;;17.48;84.03;99180.66;5054075;28;20075;-74
2021/08/06 05:42:38;;;;;;;4.78;2.97;;;;;;;17.49;83.70;99176.94;5054188;28;20041;-74
2021/08/06 05:45:08;;;;;;;5.22;3.55;;;;;;;17.89;82.36;99185.19;5054077;28;20541;-74
2021/08/06 05:47:49;;;;;;;5.50;3.42;;;;;;;17.98;81.97;99188.75;5053694;28;20412;-74
2021/08/06 05:50:18;;;;;;;4.90;3.45;;;;;;;17.91;82.04;99183.16;5052824;28;20063;-75
2021/08/06 05:52:47;;;;;;;5.20;3.20;;;;;;;17.81;82.80;99181.63;5054000;28;20073;-74
2021/08/06 05:55:17;;;;;;;5.30;3.47;;;;;;;18.86;78.49;99173.63;5053774;28;20045;-74
2021/08/06 05:57:46;;;;;;;5.57;3.35;;;;;;;18.45;79.81;99180.06;5054045;28;20045;-74
2021/08/06 06:00:17;;;;;;;5.43;3.15;;;;;;;18.40;79.53;99182.41;5053446;28;20048;-75
2021/08/06 06:02:45;;;;;;;6.28;3.33;;;;;;;18.60;78.23;99195.38;5053668;28;20048;-73
2021/08/06 06:05:13;;;;;;;5.07;3.13;;;;;;;18.34;79.28;99194.72;5053560;28;20458;-75
2021/08/06 06:07:46;;;;;;;4.57;3.05;;;;;;;18.45;79.10;99198.94;5053757;28;20079;-74
2021/08/06 06:10:21;;;;;;;5.18;2.83;;;;;;;18.47;78.81;99195.06;5053429;28;20045;-75
2021/08/06 06:12:51;;;;;;;3.45;2.30;;;;;;;18.42;77.57;99207.38;5053734;28;20094;-74
2021/08/06 06:15:19;;;;;;;5.97;2.90;;;;;;;18.77;76.90;99209.78;5053279;28;20560;-74
2021/08/06 06:17:48;;;;;;;4.68;2.67;;;;;;;18.68;76.43;99205.38;5053250;28;20411;-74
2021/08/06 06:20:18;;;;;;;5.22;2.50;;;;;;;18.66;76.30;99212.81;5053146;28;20041;-74
2021/08/06 06:22:47;;;;;;;4.63;2.42;;;;;;;18.58;75.26;99212.78;5053398;28;20049;-71
2021/08/06 06:25:16;;;;;;;3.80;2.63;;;;;;;19.01;73.61;99226.97;5052984;28;20127;-74
2021/08/06 06:27:54;;;;;;;3.10;1.92;;;;;;;19.42;72.58;99214.22;5053108;28;20514;-71
2021/08/06 06:30:24;;;;;;;5.85;2.78;;;;;;;19.51;72.83;99212.34;5053121;28;20051;-72
2021/08/06 06:32:53;;;;;;;4.65;2.83;;;;;;;19.31;72.75;99211.91;5052941;28;20053;-70
2021/08/06 06:35:24;;;;;;;3.80;2.05;;;;;;;19.55;71.42;99211.78;5052941;28;20053;-72
2021/08/06 06:37:53;;;;;;;4.53;2.53;;;;;;;20.06;68.99;99206.00;5052933;28;20072;-72
2021/08/06 06:40:23;;;;;;;4.72;2.65;;;;;;;19.70;70.81;99209.25;5052408;28;20143;-71
2021/08/06 06:42:54;;;;;;;4.75;2.05;;;;;;;20.44;68.61;99213.22;5052209;28;20064;-70
2021/08/06 06:45:24;;;;;;;3.50;2.10;;;;;;;20.39;68.48;99218.31;5052243;28;20450;-72
2021/08/06 06:47:54;;;;;;;4.55;2.60;;;;;;;20.93;66.91;99215.50;5052760;28;20032;-72
2021/08/06 06:50:24;;;;;;;3.80;2.30;;;;;;;21.21;64.87;99221.16;5052672;28;20045;-72
2021/08/06 06:52:52;;;;;;;6.88;2.47;;;;;;;20.93;66.03;99212.81;5053045;28;20215;-71
2021/08/06 06:55:21;;;;;;;3.22;2.17;;;;;;;21.67;63.80;99208.31;5052667;28;20072;-72
2021/08/06 06:57:51;;;;;;;4.63;2.25;;;;;;;22.14;62.04;99223.34;5052737;28;20049;-70
2021/08/06 07:00:25;;;;;;;3.92;1.80;;;;;;;21.50;63.87;99235.81;5052522;28;20045;-71
2021/08/06 07:02:53;;;;;;;4.10;2.20;;;;;;;21.24;64.02;99222.69;5051586;28;20059;-70
2021/08/06 07:05:22;;;;;;;4.13;2.08;;;;;;;20.53;67.29;99217.56;5052576;28;20156;-71
2021/08/06 07:07:50;;;;;;;4.97;2.20;;;;;;;20.61;67.84;99219.34;5052570;28;20048;-74
2021/08/06 07:10:20;;;;;;;4.25;2.30;;;;;;;20.02;69.28;99224.47;5052392;28;20115;-71
2021/08/06 07:12:49;;;;;;;4.00;2.17;;;;;;;19.99;69.87;99222.97;5052430;28;20106;-73
2021/08/06 07:15:18;;;;;;;3.75;2.20;;;;;;;19.99;70.17;99225.66;5052489;28;20098;-73
2021/08/06 07:17:48;;;;;;;4.72;2.30;;;;;;;20.11;69.40;99222.56;5052504;28;20045;-74
2021/08/06 07:20:18;;;;;;;3.90;2.00;;;;;;;20.09;69.15;99219.19;5052877;28;20049;-74
2021/08/06 07:22:48;;;;;;;3.55;2.20;;;;;;;19.99;70.03;99231.09;5052795;28;20047;-73
2021/08/06 07:25:18;;;;;;;4.72;2.00;;;;;;;19.85;69.78;99223.69;5051582;28;20049;-74
2021/08/06 07:27:47;;;;;;;3.95;1.80;;;;;;;19.49;71.27;99233.28;5052667;28;20049;-74
2021/08/06 07:30:17;;;;;;;4.15;2.00;;;;;;;19.40;71.71;99238.72;5052320;28;20475;-74
2021/08/06 07:32:45;;;;;;;3.78;2.30;;;;;;;19.56;71.76;99226.19;5052557;28;20073;-70
2021/08/06 07:35:16;;;;;;;3.17;2.28;;;;;;;19.71;71.32;99219.03;5052607;28;20056;-73
2021/08/06 07:37:45;;;;;;;2.80;1.67;;;;;;;19.68;71.56;99227.50;5052740;28;20052;-70
2021/08/06 07:40:15;;;;;;;3.15;2.08;;;;;;;19.76;71.85;99230.16;5052453;28;20377;-71
2021/08/06 07:42:44;;;;;;;4.78;2.08;;;;;;;19.89;71.67;99241.28;5052064;28;20545;-71
2021/08/06 07:45:13;;;;;;;3.25;1.75;;;;;;;19.90;69.83;99221.31;5052413;28;20107;-71
2021/08/06 07:47:41;;;;;;;3.33;1.90;;;;;;;19.83;70.56;99241.97;5052206;28;20484;-71
2021/08/06 07:50:10;;;;;;;2.78;1.63;;;;;;;19.85;70.79;99229.13;5052282;28;20047;-70
2021/08/06 07:52:40;;;;;;;3.58;1.80;;;;;;;19.72;70.75;99234.25;5052176;28;20040;-71
2021/08/06 07:55:12;;;;;;;2.90;1.70;;;;;;;19.94;69.84;99241.59;5051887;28;20041;-70
2021/08/06 07:57:41;;;;;;;3.08;1.88;;;;;;;20.12;69.44;99251.31;5052130;28;20084;-70
2021/08/06 08:00:10;;;;;;;2.60;1.70;;;;;;;20.04;69.29;99243.22;5051136;28;20395;-71
2021/08/06 08:02:38;;;;;;;3.65;2.00;;;;;;;20.05;69.03;99255.75;5050670;28;20057;-70
2021/08/06 08:05:07;;;;;;;3.13;1.90;;;;;;;20.11;69.01;99249.63;5052179;28;20041;-70
2021/08/06 08:07:35;;;;;;;2.97;1.83;;;;;;;20.21;69.25;99250.25;5050650;28;20060;-70
2021/08/06 08:10:06;;;;;;;3.22;1.80;;;;;;;20.44;67.59;99251.13;5052132;28;20041;-71
2021/08/06 08:12:34;;;;;;;3.58;1.88;;;;;;;20.71;68.77;99262.47;5052126;28;20468;-70
2021/08/06 08:15:03;;;;;;;3.78;1.70;;;;;;;20.60;67.24;99279.16;5054905;28;20049;-70
2021/08/06 08:17:31;;;;;;;4.63;1.95;;;;;;;20.41;67.18;99270.44;5055662;28;20041;-70
2021/08/06 08:20:00;;;;;;;3.20;1.90;;;;;;;20.48;67.70;99276.03;5055569;28;20045;-71
2021/08/06 08:22:31;;;;;;;2.90;1.88;;;;;;;20.52;68.16;99263.78;5055351;28;20462;-71
2021/08/06 08:24:59;;;;;;;2.70;1.70;;;;;;;20.51;67.16;99262.94;5055455;28;20052;-70
2021/08/06 08:27:30;;;;;;;5.22;1.77;;;;;;;20.56;67.86;99265.97;5055086;28;20503;-71
2021/08/06 08:29:58;;;;;;;3.40;1.83;;;;;;;20.48;67.84;99279.56;5055432;28;20467;-70
2021/08/06 08:32:26;;;;;;;4.38;1.90;;;;;;;20.35;67.60;99279.25;5055241;28;20084;-71
2021/08/06 08:34:54;;;;;;;3.33;1.85;;;;;;;20.41;67.58;99275.84;5055197;28;20045;-70
2021/08/06 08:37:25;;;;;;;3.92;1.92;;;;;;;20.25;68.18;99270.53;5055641;28;20052;-70
2021/08/06 08:39:53;;;;;;;4.30;1.92;;;;;;;20.29;68.36;99274.56;5055539;28;20103;-70
2021/08/06 08:42:22;;;;;;;3.33;1.90;;;;;;;20.27;67.92;99272.06;5055245;28;20044;-70
2021/08/06 08:44:52;;;;;;;2.72;1.63;;;;;;;20.32;66.14;99282.34;5055082;28;20128;-70
2021/08/06 08:47:23;;;;;;;3.45;1.67;;;;;;;20.44;67.26;99261.97;5054938;28;20098;-70
2021/08/06 08:49:53;;;;;;;2.10;1.30;;;;;;;20.35;67.08;99257.59;5055081;28;20484;-70
2021/08/06 08:52:23;;;;;;;3.30;1.25;;;;;;;20.48;67.89;99271.44;5054918;28;20076;-70
2021/08/06 08:54:51;;;;;;;3.25;1.45;;;;;;;20.47;66.24;99271.63;5054989;28;20111;-70
2021/08/06 08:57:24;;;;;;;5.00;2.08;;;;;;;20.55;67.36;99266.97;5055092;28;20056;-70
2021/08/06 08:59:55;;;;;;;2.08;1.40;;;;;;;20.80;67.66;99262.22;5054836;28;20052;-70
2021/08/06 09:02:24;;;;;;;2.63;1.45;;;;;;;20.69;65.45;99275.34;5054959;28;20045;-70
2021/08/06 09:05:12;;;;;;;3.67;1.60;;;;;;;20.69;65.48;99278.91;5054877;28;20041;-70
2021/08/06 09:07:41;;;;;;;4.93;1.75;;;;;;;20.85;65.93;99275.25;5054502;28;20480;-70
2021/08/06 09:10:11;;;;;;;3.25;1.70;;;;;;;21.06;65.45;99271.84;5054597;28;20124;-70
2021/08/06 09:12:51;;;;;;;1.92;1.20;;;;;;;21.07;64.28;99285.22;5054447;28;20048;-70
2021/08/06 09:15:43;;;;;;;1.15;1.00;;;;;;;21.08;64.39;99278.75;5054501;28;20468;-70
2021/08/06 09:18:32;;;;;;;1.85;1.25;;;;;;;21.00;62.63;99286.13;5054530;28;20040;-70
2021/08/06 09:21:03;;;;;;;2.75;1.30;;;;;;;21.11;64.37;99281.09;5054826;28;20045;-70
2021/08/06 09:23:43;;;;;;;2.63;1.50;;;;;;;21.09;63.89;99276.88;5053639;28;20106;-69
2021/08/06 09:26:33;;;;;;;3.55;1.40;;;;;;;21.24;63.94;99275.06;5053430;28;20120;-69
2021/08/06 09:29:04;;;;;;;2.53;1.52;;;;;;;21.03;64.17;99283.03;5054428;28;20103;-69
2021/08/06 09:31:36;;;;;;;3.45;1.75;;;;;;;21.09;64.62;99290.44;5054104;28;20052;-70
2021/08/06 09:34:23;;;;;;;3.83;1.60;;;;;;;21.23;64.79;99302.34;5054299;28;20041;-70
2021/08/06 09:37:00;;;;;;;3.00;1.77;;;;;;;21.25;64.55;99297.59;5054127;28;20404;-70
2021/08/06 09:39:32;;;;;;;3.15;1.50;;;;;;;21.43;64.96;99300.84;5053700;28;20044;-70
2021/08/06 09:42:17;;;;;;;3.85;1.67;;;;;;;21.41;65.36;99292.88;5054416;28;20488;-69
2021/08/06 09:44:58;;;;;;;4.45;1.63;;;;;;;21.55;65.10;99293.94;5053925;28;20071;-70
2021/08/06 09:47:29;;;;;;;3.22;1.60;;;;;;;21.79;63.90;99294.66;5054140;28;20068;-69
2021/08/06 09:49:59;;;;;;;3.53;1.50;;;;;;;21.80;62.30;99291.75;5054013;28;20041;-69
2021/08/06 09:52:34;;;;;;;4.47;1.90;;;;;;;21.93;62.19;99307.41;5054155;28;20049;-70
2021/08/06 09:55:24;;;;;;;3.92;1.50;;;;;;;21.78;63.39;99314.72;5053941;28;20049;-70
2021/08/06 09:57:53;;;;;;;2.95;1.63;;;;;;;21.97;63.17;99297.84;5053569;28;20040;-71
2021/08/06 10:00:23;;;;;;;5.47;1.90;;;;;;;22.12;63.05;99306.03;5053648;28;20040;-71
2021/08/06 10:02:54;;;;;;;2.70;1.38;;;;;;;21.75;61.61;99315.09;5053639;28;20048;-71
2021/08/06 10:05:26;;;;;;;3.90;1.80;;;;;;;21.48;61.94;99308.41;5053790;28;20041;-71
2021/08/06 10:07:55;;;;;;;2.17;1.38;;;;;;;21.81;62.97;99308.91;5053700;28;20040;-71
2021/08/06 10:10:27;;;;;;;2.53;1.63;;;;;;;21.98;61.73;99310.38;5053477;28;20504;-70
2021/08/06 10:12:55;;;;;;;2.45;1.55;;;;;;;22.04;60.62;99320.50;5052725;28;20131;-69
2021/08/06 10:15:25;;;;;;;3.33;1.67;;;;;;;21.87;60.42;99314.44;5053497;28;20041;-69
2021/08/06 10:17:57;;;;;;;2.05;1.30;;;;;;;21.99;60.42;99307.47;5053015;28;20045;-69
2021/08/06 10:20:27;;;;;;;2.10;1.40;;;;;;;22.07;60.89;99300.31;5053396;28;20044;-69
2021/08/06 10:22:56;;;;;;;2.55;1.65;;;;;;;22.18;61.05;99316.13;5053280;28;20044;-70
2021/08/06 10:25:25;;;;;;;3.95;1.80;;;;;;;22.21;59.55;99315.75;5053191;28;20045;-70
2021/08/06 10:27:54;;;;;;;3.58;1.63;;;;;;;22.24;60.41;99310.78;5053083;28;20450;-71
2021/08/06 10:30:27;;;;;;;3.45;1.80;;;;;;;22.16;60.43;99307.31;5053248;28;20044;-68
2021/08/06 10:33:09;;;;;;;4.40;1.90;;;;;;;22.32;58.93;99314.44;5052514;28;20115;-71
2021/08/06 10:35:45;;;;;;;2.78;1.67;;;;;;;22.30;60.28;99319.22;5052586;28;20039;-71
2021/08/06 10:38:14;;;;;;;3.67;1.77;;;;;;;22.00;59.31;99308.31;5053050;28;20033;-71
2021/08/06 10:41:08;;;;;;;2.92;1.80;;;;;;;22.17;60.17;99326.13;5051673;28;20435;-70
2021/08/06 10:43:49;;;;;;;4.32;1.73;;;;;;;22.13;60.48;99327.56;5052816;28;20048;-70
2021/08/06 10:46:18;;;;;;;5.07;1.80;;;;;;;21.94;60.20;99319.97;5053560;28;20045;-70
2021/08/06 10:48:50;;;;;;;2.88;1.80;;;;;;;22.03;60.25;99318.00;5053045;28;20049;-70
2021/08/06 10:51:33;;;;;;;2.97;1.70;;;;;;;22.16;61.21;99312.75;5052964;28;20460;-70
2021/08/06 10:54:36;;;;;;;2.17;1.40;;;;;;;22.40;58.47;99317.03;5052972;28;20421;-70
2021/08/06 10:57:38;;;;;;;2.65;1.48;;;;;;;22.40;59.03;99314.31;5052948;28;20407;-70
2021/08/06 11:00:07;;;;;;;2.90;1.60;;;;;;;22.39;58.65;99307.19;5052865;28;20049;-70
2021/08/06 11:02:47;;;;;;;4.10;1.48;;;;;;;22.51;58.52;99313.81;5052448;28;20041;-71
2021/08/06 11:05:47;;;;;;;3.63;1.55;;;;;;;22.75;57.71;99316.16;5053036;28;20072;-70
2021/08/06 11:08:57;;;;;;;3.15;1.48;;;;;;;22.85;56.43;99308.56;5052609;28;20048;-70
2021/08/06 11:11:49;;;;;;;2.78;1.50;;;;;;;22.76;56.99;99309.69;5052990;28;20048;-70
2021/08/06 11:14:27;;;;;;;2.17;1.40;;;;;;;22.66;56.07;99314.59;5052888;28;20147;-70
2021/08/06 11:17:00;;;;;;;2.17;1.50;;;;;;;22.66;56.77;99305.59;5052365;28;20045;-70
2021/08/06 11:19:28;;;;;;;;;;;;;;;22.67;55.85;99321.72;5053007;28;20053;-71
2021/08/06 11:21:58;;;;;;;2.97;1.67;;;;;;;22.53;56.93;99315.31;5052750;28;19925;-70
2021/08/06 11:24:27;;;;;;;2.72;1.58;;;;;;;22.48;56.63;99319.63;5052739;28;20044;-70
2021/08/06 11:26:58;;;;;;;1.80;1.42;;;;;;;22.55;56.16;99340.41;5052423;28;20102;-70
2021/08/06 11:29:26;;;;;;;2.05;1.40;;;;;;;22.63;55.09;99312.28;5052543;28;20392;-70
2021/08/06 11:32:06;;;;;;;2.95;1.63;;;;;;;22.94;54.07;99305.72;5052398;28;20599;-71
2021/08/06 11:34:55;;;;;;;1.77;1.27;;;;;;;23.09;52.79;99331.81;5052812;28;20048;-75
2021/08/06 11:37:27;;;;;;;2.13;1.55;;;;;;;22.97;53.98;99316.19;5052494;28;20115;-70
2021/08/06 11:40:09;;;;;;;2.78;1.70;;;;;;;23.33;52.71;99324.25;5052640;28;20048;-71
2021/08/06 11:42:37;;;;;;;2.72;1.60;;;;;;;23.27;53.63;99327.78;5052394;28;20448;-71
2021/08/06 11:45:07;;;;;;;1.98;1.50;;;;;;;23.38;54.27;99319.94;5052665;28;20467;-70
2021/08/06 11:47:42;;;;;;;2.88;1.77;;;;;;;23.49;54.63;99325.88;5052209;28;20041;-75
2021/08/06 11:50:13;;;;;;;3.38;2.10;;;;;;;23.57;52.52;99329.28;5056027;28;20041;-70
2021/08/06 11:52:45;;;;;;;3.10;1.60;;;;;;;23.32;52.05;99315.25;5056277;28;20136;-71